Gazpromneft East — UBOF4 — position and weather

sailwx.info

Track history (hours):
 
Tides and Currents Weather Stations Pressure Air Temp Water Temp Dewpoint Dewpoint Depression Visibility Wind Speed Wind Dir Waves Ship Positions

Gazpromneft East

Last reported at 2015-Jan-30 22:33 UTC. Time now 2015-Jan-30 23:27 UTC.
Position N 59°54' E 030°14'.

Length 79 m; draft 5.4 m.

Type: Tanker. MMSI: 273335320.

Date/timePositionNaut miles runAvg speedWind from/ knotsBaromVisibWave heightAir tempDewpointWater temp
2015-Jan-30 22:33N 59°54' E 030°14'0 0.0
2015-Jan-30 21:34N 59°54' E 030°14'0 0.0
2015-Jan-30 20:33N 59°54' E 030°14'0 0.0
2015-Jan-30 19:33N 59°54' E 030°14'0 0.0
2015-Jan-30 18:33N 59°54' E 030°14'0 0.0
2015-Jan-30 17:33N 59°54' E 030°14'2 1.6
2015-Jan-30 16:32N 59°53' E 030°11'  
2015-Jan-28 09:24N 59°54' E 030°07'3 0.1
2015-Jan-27 11:24N 59°53' E 030°13'0 0.0
2015-Jan-27 06:13N 59°53' E 030°13'0 0.0
2015-Jan-26 19:32N 59°53' E 030°13'2 1.7
2015-Jan-26 18:09N 59°55' E 030°14'0 0.0
2015-Jan-26 17:14N 59°55' E 030°14'0 0.0
2015-Jan-26 16:32N 59°55' E 030°14'2 2.5
2015-Jan-26 15:33N 59°53' E 030°12'0 0.0
2015-Jan-26 09:31N 59°53' E 030°12'1 0.4
2015-Jan-26 06:34N 59°53' E 030°10'1 0.1
2015-Jan-25 16:33N 59°53' E 030°13'0 0.1
2015-Jan-25 10:25N 59°53' E 030°13'1 0.1
2015-Jan-25 05:21N 59°53' E 030°12'0 0.0
2015-Jan-23 12:30N 59°53' E 030°13'2 1.2
2015-Jan-23 10:31N 59°55' E 030°14'0 0.0
2015-Jan-23 09:16N 59°55' E 030°14'0 0.0
2015-Jan-23 07:26N 59°55' E 030°14'0 0.2
2015-Jan-23 06:33N 59°55' E 030°14'3 0.3
2015-Jan-22 21:30N 59°53' E 030°11'1 1.0
2015-Jan-22 20:27N 59°52' E 030°12'0 0.0
2015-Jan-22 19:33N 59°52' E 030°12'  
Track history (hours):
 
Tides and Currents Weather Stations Pressure Air Temp Water Temp Dewpoint Dewpoint Depression Visibility Wind Speed Wind Dir Waves Ship Positions

Gazpromneft East

Last reported at 2015-Jan-30 22:33 UTC. Time now 2015-Jan-30 23:27 UTC.
Position N 59°54' E 030°14'.

Length 79 m; draft 5.4 m.

Type: Tanker. MMSI: 273335320.

Date/timePositionNaut miles runAvg speedWind from/ knotsBaromVisibWave heightAir tempDewpointWater temp
2015-Jan-30 22:33N 59°54' E 030°14'0 0.0
2015-Jan-30 21:34N 59°54' E 030°14'0 0.0
2015-Jan-30 20:33N 59°54' E 030°14'0 0.0
2015-Jan-30 19:33N 59°54' E 030°14'0 0.0
2015-Jan-30 18:33N 59°54' E 030°14'0 0.0
2015-Jan-30 17:33N 59°54' E 030°14'2 1.6
2015-Jan-30 16:32N 59°53' E 030°11'  
2015-Jan-28 09:24N 59°54' E 030°07'3 0.1
2015-Jan-27 11:24N 59°53' E 030°13'0 0.0
2015-Jan-27 06:13N 59°53' E 030°13'0 0.0
2015-Jan-26 19:32N 59°53' E 030°13'2 1.7
2015-Jan-26 18:09N 59°55' E 030°14'0 0.0
2015-Jan-26 17:14N 59°55' E 030°14'0 0.0
2015-Jan-26 16:32N 59°55' E 030°14'2 2.5
2015-Jan-26 15:33N 59°53' E 030°12'0 0.0
2015-Jan-26 09:31N 59°53' E 030°12'1 0.4
2015-Jan-26 06:34N 59°53' E 030°10'1 0.1
2015-Jan-25 16:33N 59°53' E 030°13'0 0.1
2015-Jan-25 10:25N 59°53' E 030°13'1 0.1
2015-Jan-25 05:21N 59°53' E 030°12'0 0.0
2015-Jan-23 12:30N 59°53' E 030°13'2 1.2
2015-Jan-23 10:31N 59°55' E 030°14'0 0.0
2015-Jan-23 09:16N 59°55' E 030°14'0 0.0
2015-Jan-23 07:26N 59°55' E 030°14'0 0.2
2015-Jan-23 06:33N 59°55' E 030°14'3 0.3
2015-Jan-22 21:30N 59°53' E 030°11'1 1.0
2015-Jan-22 20:27N 59°52' E 030°12'0 0.0
2015-Jan-22 19:33N 59°52' E 030°12'  

Dump ship's entire track history